sensor_id;sensor_type;location;lat;lon;timestamp;P1;durP1;ratioP1;P2;durP2;ratioP2
32172;SDS011;18679;45.190;5.722;2023-03-01T00:02:24;14.18;;;7.53;;
32172;SDS011;18679;45.190;5.722;2023-03-01T00:05:25;13.52;;;6.88;;
32172;SDS011;18679;45.190;5.722;2023-03-01T00:08:26;14.88;;;7.32;;
32172;SDS011;18679;45.190;5.722;2023-03-01T00:11:28;16.38;;;7.15;;
32172;SDS011;18679;45.190;5.722;2023-03-01T00:14:30;14.45;;;6.90;;
32172;SDS011;18679;45.190;5.722;2023-03-01T00:17:32;13.40;;;7.15;;
32172;SDS011;18679;45.190;5.722;2023-03-01T00:20:33;12.40;;;7.18;;
32172;SDS011;18679;45.190;5.722;2023-03-01T00:23:35;12.52;;;6.57;;
32172;SDS011;18679;45.190;5.722;2023-03-01T00:26:36;13.10;;;6.35;;
32172;SDS011;18679;45.190;5.722;2023-03-01T00:29:37;14.25;;;6.95;;
32172;SDS011;18679;45.190;5.722;2023-03-01T00:32:38;12.98;;;7.05;;
32172;SDS011;18679;45.190;5.722;2023-03-01T00:35:39;14.50;;;7.53;;
32172;SDS011;18679;45.190;5.722;2023-03-01T00:38:41;15.43;;;7.13;;
32172;SDS011;18679;45.190;5.722;2023-03-01T00:41:43;14.10;;;7.45;;
32172;SDS011;18679;45.190;5.722;2023-03-01T00:44:44;16.17;;;7.40;;
32172;SDS011;18679;45.190;5.722;2023-03-01T00:47:45;16.80;;;6.72;;
32172;SDS011;18679;45.190;5.722;2023-03-01T00:50:46;14.75;;;6.95;;
32172;SDS011;18679;45.190;5.722;2023-03-01T00:53:47;10.93;;;6.20;;
32172;SDS011;18679;45.190;5.722;2023-03-01T00:56:51;11.68;;;5.88;;
32172;SDS011;18679;45.190;5.722;2023-03-01T00:59:51;15.02;;;7.05;;
32172;SDS011;18679;45.190;5.722;2023-03-01T01:02:52;13.75;;;7.05;;
32172;SDS011;18679;45.190;5.722;2023-03-01T01:05:53;19.95;;;7.95;;
32172;SDS011;18679;45.190;5.722;2023-03-01T01:08:55;13.23;;;7.35;;
32172;SDS011;18679;45.190;5.722;2023-03-01T01:11:57;14.95;;;7.30;;
32172;SDS011;18679;45.190;5.722;2023-03-01T01:14:58;14.20;;;7.30;;
32172;SDS011;18679;45.190;5.722;2023-03-01T01:17:59;20.67;;;8.18;;
32172;SDS011;18679;45.190;5.722;2023-03-01T01:21:05;15.65;;;7.32;;
32172;SDS011;18679;45.190;5.722;2023-03-01T01:24:08;10.00;;;4.97;;
32172;SDS011;18679;45.190;5.722;2023-03-01T01:27:09;18.85;;;7.85;;
32172;SDS011;18679;45.190;5.722;2023-03-01T01:30:10;19.33;;;7.15;;
32172;SDS011;18679;45.190;5.722;2023-03-01T01:33:12;17.65;;;8.75;;
32172;SDS011;18679;45.190;5.722;2023-03-01T01:36:13;19.60;;;9.05;;
32172;SDS011;18679;45.190;5.722;2023-03-01T01:39:13;21.58;;;9.80;;
32172;SDS011;18679;45.190;5.722;2023-03-01T01:42:15;18.10;;;8.35;;
32172;SDS011;18679;45.190;5.722;2023-03-01T01:48:39;19.20;;;9.18;;
32172;SDS011;18679;45.190;5.722;2023-03-01T01:51:45;17.85;;;8.70;;
32172;SDS011;18679;45.190;5.722;2023-03-01T01:54:50;20.38;;;9.77;;
32172;SDS011;18679;45.190;5.722;2023-03-01T01:58:12;19.33;;;8.85;;
32172;SDS011;18679;45.190;5.722;2023-03-01T02:01:15;18.48;;;10.13;;
32172;SDS011;18679;45.190;5.722;2023-03-01T02:04:17;19.30;;;9.35;;
32172;SDS011;18679;45.190;5.722;2023-03-01T02:07:19;17.50;;;9.10;;
32172;SDS011;18679;45.190;5.722;2023-03-01T02:10:22;21.85;;;8.90;;
32172;SDS011;18679;45.190;5.722;2023-03-01T02:13:25;20.15;;;8.98;;
32172;SDS011;18679;45.190;5.722;2023-03-01T02:16:28;19.02;;;9.10;;
32172;SDS011;18679;45.190;5.722;2023-03-01T02:19:35;22.25;;;9.05;;
32172;SDS011;18679;45.190;5.722;2023-03-01T02:26:41;19.45;;;8.48;;
32172;SDS011;18679;45.190;5.722;2023-03-01T02:29:47;23.95;;;9.73;;
32172;SDS011;18679;45.190;5.722;2023-03-01T02:32:49;21.80;;;9.18;;
32172;SDS011;18679;45.190;5.722;2023-03-01T02:35:51;20.67;;;9.95;;
32172;SDS011;18679;45.190;5.722;2023-03-01T02:38:55;25.42;;;10.38;;
32172;SDS011;18679;45.190;5.722;2023-03-01T02:41:58;19.45;;;9.30;;
32172;SDS011;18679;45.190;5.722;2023-03-01T02:45:02;21.73;;;8.65;;
32172;SDS011;18679;45.190;5.722;2023-03-01T02:48:03;17.63;;;8.63;;
32172;SDS011;18679;45.190;5.722;2023-03-01T02:51:07;18.25;;;8.10;;
32172;SDS011;18679;45.190;5.722;2023-03-01T02:54:20;18.35;;;8.95;;
32172;SDS011;18679;45.190;5.722;2023-03-01T02:57:30;19.42;;;8.68;;
32172;SDS011;18679;45.190;5.722;2023-03-01T03:00:37;21.45;;;9.05;;
32172;SDS011;18679;45.190;5.722;2023-03-01T03:03:48;22.55;;;10.05;;
32172;SDS011;18679;45.190;5.722;2023-03-01T03:06:49;19.10;;;8.93;;
32172;SDS011;18679;45.190;5.722;2023-03-01T03:09:51;22.33;;;9.35;;
32172;SDS011;18679;45.190;5.722;2023-03-01T03:12:53;23.15;;;9.07;;
32172;SDS011;18679;45.190;5.722;2023-03-01T03:15:56;22.05;;;10.10;;
32172;SDS011;18679;45.190;5.722;2023-03-01T03:18:57;21.98;;;9.60;;
32172;SDS011;18679;45.190;5.722;2023-03-01T03:22:05;15.27;;;6.53;;
32172;SDS011;18679;45.190;5.722;2023-03-01T03:25:06;19.63;;;9.52;;
32172;SDS011;18679;45.190;5.722;2023-03-01T03:28:11;18.38;;;8.15;;
32172;SDS011;18679;45.190;5.722;2023-03-01T03:31:12;19.35;;;8.80;;
32172;SDS011;18679;45.190;5.722;2023-03-01T03:34:13;21.88;;;8.95;;
32172;SDS011;18679;45.190;5.722;2023-03-01T03:37:18;22.80;;;9.52;;
32172;SDS011;18679;45.190;5.722;2023-03-01T03:40:40;19.10;;;9.25;;
32172;SDS011;18679;45.190;5.722;2023-03-01T03:43:43;20.73;;;8.88;;
32172;SDS011;18679;45.190;5.722;2023-03-01T03:46:44;23.42;;;9.18;;
32172;SDS011;18679;45.190;5.722;2023-03-01T03:49:45;19.92;;;9.65;;
32172;SDS011;18679;45.190;5.722;2023-03-01T03:52:46;22.35;;;10.00;;
32172;SDS011;18679;45.190;5.722;2023-03-01T03:55:47;19.08;;;10.00;;
32172;SDS011;18679;45.190;5.722;2023-03-01T03:58:49;25.10;;;8.93;;
32172;SDS011;18679;45.190;5.722;2023-03-01T04:01:50;21.15;;;9.25;;
32172;SDS011;18679;45.190;5.722;2023-03-01T04:04:50;18.77;;;9.05;;
32172;SDS011;18679;45.190;5.722;2023-03-01T04:07:52;21.33;;;8.77;;
32172;SDS011;18679;45.190;5.722;2023-03-01T04:11:01;20.65;;;10.02;;
32172;SDS011;18679;45.190;5.722;2023-03-01T04:14:23;22.15;;;9.60;;
32172;SDS011;18679;45.190;5.722;2023-03-01T04:17:24;23.25;;;9.57;;
32172;SDS011;18679;45.190;5.722;2023-03-01T04:20:27;19.60;;;9.95;;
32172;SDS011;18679;45.190;5.722;2023-03-01T04:23:29;20.58;;;10.27;;
32172;SDS011;18679;45.190;5.722;2023-03-01T04:26:30;23.02;;;8.93;;
32172;SDS011;18679;45.190;5.722;2023-03-01T04:29:31;23.02;;;10.85;;
32172;SDS011;18679;45.190;5.722;2023-03-01T04:32:32;19.52;;;9.80;;
32172;SDS011;18679;45.190;5.722;2023-03-01T04:35:33;24.13;;;10.38;;
32172;SDS011;18679;45.190;5.722;2023-03-01T04:38:38;18.00;;;8.80;;
32172;SDS011;18679;45.190;5.722;2023-03-01T04:41:40;23.08;;;9.57;;
32172;SDS011;18679;45.190;5.722;2023-03-01T04:44:43;24.40;;;10.98;;
32172;SDS011;18679;45.190;5.722;2023-03-01T04:47:45;26.20;;;10.48;;
32172;SDS011;18679;45.190;5.722;2023-03-01T04:50:46;22.20;;;10.10;;
32172;SDS011;18679;45.190;5.722;2023-03-01T04:53:47;24.42;;;8.88;;
32172;SDS011;18679;45.190;5.722;2023-03-01T04:56:49;26.25;;;9.63;;
32172;SDS011;18679;45.190;5.722;2023-03-01T04:59:49;22.00;;;9.52;;
32172;SDS011;18679;45.190;5.722;2023-03-01T05:05:58;20.70;;;8.85;;
32172;SDS011;18679;45.190;5.722;2023-03-01T05:08:59;22.17;;;9.68;;
32172;SDS011;18679;45.190;5.722;2023-03-01T05:12:00;20.90;;;9.93;;
32172;SDS011;18679;45.190;5.722;2023-03-01T05:15:01;25.15;;;9.90;;
32172;SDS011;18679;45.190;5.722;2023-03-01T05:18:07;23.08;;;9.77;;
32172;SDS011;18679;45.190;5.722;2023-03-01T05:21:12;26.70;;;10.40;;
32172;SDS011;18679;45.190;5.722;2023-03-01T05:24:16;21.90;;;10.70;;
32172;SDS011;18679;45.190;5.722;2023-03-01T05:27:17;19.00;;;8.65;;
32172;SDS011;18679;45.190;5.722;2023-03-01T05:30:17;21.40;;;10.25;;
32172;SDS011;18679;45.190;5.722;2023-03-01T05:33:18;22.98;;;10.30;;
32172;SDS011;18679;45.190;5.722;2023-03-01T05:36:22;22.33;;;9.40;;
32172;SDS011;18679;45.190;5.722;2023-03-01T05:39:23;20.83;;;9.50;;
32172;SDS011;18679;45.190;5.722;2023-03-01T05:42:26;19.90;;;9.32;;
32172;SDS011;18679;45.190;5.722;2023-03-01T05:45:27;26.25;;;10.93;;
32172;SDS011;18679;45.190;5.722;2023-03-01T05:48:28;24.13;;;10.20;;
32172;SDS011;18679;45.190;5.722;2023-03-01T05:51:29;21.85;;;9.35;;
32172;SDS011;18679;45.190;5.722;2023-03-01T05:54:30;24.95;;;10.80;;
32172;SDS011;18679;45.190;5.722;2023-03-01T05:57:31;27.13;;;10.75;;
32172;SDS011;18679;45.190;5.722;2023-03-01T06:00:32;26.48;;;11.38;;
32172;SDS011;18679;45.190;5.722;2023-03-01T06:03:33;27.88;;;11.35;;
32172;SDS011;18679;45.190;5.722;2023-03-01T06:06:34;24.85;;;10.00;;
32172;SDS011;18679;45.190;5.722;2023-03-01T06:09:39;25.73;;;10.20;;
32172;SDS011;18679;45.190;5.722;2023-03-01T06:12:41;23.05;;;10.35;;
32172;SDS011;18679;45.190;5.722;2023-03-01T06:15:43;22.02;;;9.88;;
32172;SDS011;18679;45.190;5.722;2023-03-01T06:18:44;23.40;;;10.55;;
32172;SDS011;18679;45.190;5.722;2023-03-01T06:21:45;22.45;;;9.55;;
32172;SDS011;18679;45.190;5.722;2023-03-01T06:24:46;22.45;;;10.45;;
32172;SDS011;18679;45.190;5.722;2023-03-01T06:27:47;23.48;;;10.20;;
32172;SDS011;18679;45.190;5.722;2023-03-01T06:30:49;24.27;;;10.68;;
32172;SDS011;18679;45.190;5.722;2023-03-01T06:33:51;24.20;;;10.82;;
32172;SDS011;18679;45.190;5.722;2023-03-01T06:36:52;22.55;;;9.80;;
32172;SDS011;18679;45.190;5.722;2023-03-01T06:39:53;22.90;;;11.05;;
32172;SDS011;18679;45.190;5.722;2023-03-01T06:42:54;22.35;;;9.68;;
32172;SDS011;18679;45.190;5.722;2023-03-01T06:45:55;24.48;;;10.32;;
32172;SDS011;18679;45.190;5.722;2023-03-01T06:48:56;22.65;;;11.07;;
32172;SDS011;18679;45.190;5.722;2023-03-01T06:51:57;23.17;;;11.05;;
32172;SDS011;18679;45.190;5.722;2023-03-01T06:54:58;26.27;;;10.57;;
32172;SDS011;18679;45.190;5.722;2023-03-01T06:58:00;21.52;;;9.70;;
32172;SDS011;18679;45.190;5.722;2023-03-01T07:01:06;26.70;;;10.80;;
32172;SDS011;18679;45.190;5.722;2023-03-01T07:04:07;23.98;;;10.30;;
32172;SDS011;18679;45.190;5.722;2023-03-01T07:07:08;25.83;;;10.18;;
32172;SDS011;18679;45.190;5.722;2023-03-01T07:10:10;24.40;;;10.45;;
32172;SDS011;18679;45.190;5.722;2023-03-01T07:13:11;31.55;;;11.77;;
32172;SDS011;18679;45.190;5.722;2023-03-01T07:16:12;30.77;;;12.30;;
32172;SDS011;18679;45.190;5.722;2023-03-01T07:19:14;35.92;;;13.70;;
32172;SDS011;18679;45.190;5.722;2023-03-01T07:22:15;31.48;;;13.02;;
32172;SDS011;18679;45.190;5.722;2023-03-01T07:25:16;28.35;;;12.48;;
32172;SDS011;18679;45.190;5.722;2023-03-01T07:28:17;30.90;;;13.82;;
32172;SDS011;18679;45.190;5.722;2023-03-01T07:31:17;33.53;;;13.35;;
32172;SDS011;18679;45.190;5.722;2023-03-01T07:34:18;36.97;;;13.57;;
32172;SDS011;18679;45.190;5.722;2023-03-01T07:37:19;30.00;;;13.35;;
32172;SDS011;18679;45.190;5.722;2023-03-01T07:40:20;29.02;;;13.35;;
32172;SDS011;18679;45.190;5.722;2023-03-01T07:43:21;28.08;;;12.00;;
32172;SDS011;18679;45.190;5.722;2023-03-01T07:46:22;28.13;;;11.20;;
32172;SDS011;18679;45.190;5.722;2023-03-01T07:49:23;32.60;;;13.77;;
32172;SDS011;18679;45.190;5.722;2023-03-01T07:52:26;29.60;;;11.63;;
32172;SDS011;18679;45.190;5.722;2023-03-01T07:55:27;32.83;;;13.02;;
32172;SDS011;18679;45.190;5.722;2023-03-01T07:58:28;33.13;;;13.70;;
32172;SDS011;18679;45.190;5.722;2023-03-01T08:01:29;32.42;;;12.00;;
32172;SDS011;18679;45.190;5.722;2023-03-01T08:04:30;33.90;;;13.10;;
32172;SDS011;18679;45.190;5.722;2023-03-01T08:07:33;29.15;;;13.05;;
32172;SDS011;18679;45.190;5.722;2023-03-01T08:10:34;33.60;;;13.73;;
32172;SDS011;18679;45.190;5.722;2023-03-01T08:13:36;35.90;;;13.82;;
32172;SDS011;18679;45.190;5.722;2023-03-01T08:16:36;30.52;;;12.95;;
32172;SDS011;18679;45.190;5.722;2023-03-01T08:19:38;30.80;;;13.65;;
32172;SDS011;18679;45.190;5.722;2023-03-01T08:22:38;30.42;;;11.88;;
32172;SDS011;18679;45.190;5.722;2023-03-01T08:25:39;31.05;;;13.55;;
32172;SDS011;18679;45.190;5.722;2023-03-01T08:28:41;34.42;;;13.10;;
32172;SDS011;18679;45.190;5.722;2023-03-01T08:31:42;29.48;;;12.48;;
32172;SDS011;18679;45.190;5.722;2023-03-01T08:34:45;28.92;;;13.50;;
32172;SDS011;18679;45.190;5.722;2023-03-01T08:37:47;39.20;;;12.88;;
32172;SDS011;18679;45.190;5.722;2023-03-01T08:40:48;37.70;;;12.57;;
32172;SDS011;18679;45.190;5.722;2023-03-01T08:43:49;31.00;;;11.50;;
32172;SDS011;18679;45.190;5.722;2023-03-01T08:46:50;28.67;;;12.20;;
32172;SDS011;18679;45.190;5.722;2023-03-01T08:49:53;33.08;;;13.13;;
32172;SDS011;18679;45.190;5.722;2023-03-01T08:52:54;29.45;;;13.27;;
32172;SDS011;18679;45.190;5.722;2023-03-01T08:55:54;35.92;;;12.88;;
32172;SDS011;18679;45.190;5.722;2023-03-01T08:58:55;28.70;;;12.02;;
32172;SDS011;18679;45.190;5.722;2023-03-01T09:01:56;33.30;;;14.45;;
32172;SDS011;18679;45.190;5.722;2023-03-01T09:04:57;32.47;;;13.82;;
32172;SDS011;18679;45.190;5.722;2023-03-01T09:07:58;32.63;;;12.77;;
32172;SDS011;18679;45.190;5.722;2023-03-01T09:11:00;36.20;;;14.00;;
32172;SDS011;18679;45.190;5.722;2023-03-01T09:14:04;33.88;;;12.82;;
32172;SDS011;18679;45.190;5.722;2023-03-01T09:17:05;37.80;;;14.88;;
32172;SDS011;18679;45.190;5.722;2023-03-01T09:20:06;34.50;;;13.75;;
32172;SDS011;18679;45.190;5.722;2023-03-01T09:23:07;33.05;;;13.93;;
32172;SDS011;18679;45.190;5.722;2023-03-01T09:26:09;37.47;;;13.05;;
32172;SDS011;18679;45.190;5.722;2023-03-01T09:29:12;32.80;;;13.73;;
32172;SDS011;18679;45.190;5.722;2023-03-01T09:32:13;31.35;;;13.50;;
32172;SDS011;18679;45.190;5.722;2023-03-01T09:35:14;32.78;;;12.75;;
32172;SDS011;18679;45.190;5.722;2023-03-01T09:38:15;33.03;;;11.90;;
32172;SDS011;18679;45.190;5.722;2023-03-01T09:41:23;33.25;;;12.20;;
32172;SDS011;18679;45.190;5.722;2023-03-01T09:44:44;27.95;;;12.05;;
32172;SDS011;18679;45.190;5.722;2023-03-01T09:47:55;33.25;;;12.63;;
32172;SDS011;18679;45.190;5.722;2023-03-01T09:50:56;25.55;;;12.02;;
32172;SDS011;18679;45.190;5.722;2023-03-01T09:53:59;31.13;;;12.15;;
32172;SDS011;18679;45.190;5.722;2023-03-01T10:00:28;31.67;;;11.07;;
32172;SDS011;18679;45.190;5.722;2023-03-01T10:03:51;33.92;;;12.38;;
32172;SDS011;18679;45.190;5.722;2023-03-01T10:10:16;39.75;;;13.23;;
32172;SDS011;18679;45.190;5.722;2023-03-01T10:17:02;31.55;;;13.13;;
32172;SDS011;18679;45.190;5.722;2023-03-01T10:20:48;27.65;;;12.02;;
32172;SDS011;18679;45.190;5.722;2023-03-01T10:23:52;31.13;;;14.35;;
32172;SDS011;18679;45.190;5.722;2023-03-01T10:26:57;34.97;;;11.85;;
32172;SDS011;18679;45.190;5.722;2023-03-01T10:30:09;41.03;;;13.25;;
32172;SDS011;18679;45.190;5.722;2023-03-01T10:33:32;26.60;;;11.95;;
32172;SDS011;18679;45.190;5.722;2023-03-01T10:36:38;31.92;;;12.90;;
32172;SDS011;18679;45.190;5.722;2023-03-01T10:39:57;30.98;;;13.45;;
32172;SDS011;18679;45.190;5.722;2023-03-01T10:42:59;33.33;;;13.48;;
32172;SDS011;18679;45.190;5.722;2023-03-01T10:46:03;30.73;;;13.18;;
32172;SDS011;18679;45.190;5.722;2023-03-01T10:49:29;25.27;;;11.02;;
32172;SDS011;18679;45.190;5.722;2023-03-01T10:52:33;28.08;;;11.55;;
32172;SDS011;18679;45.190;5.722;2023-03-01T10:55:38;30.17;;;13.95;;
32172;SDS011;18679;45.190;5.722;2023-03-01T10:59:02;31.90;;;13.10;;
32172;SDS011;18679;45.190;5.722;2023-03-01T11:08:13;31.85;;;14.25;;
32172;SDS011;18679;45.190;5.722;2023-03-01T11:14:27;29.70;;;13.07;;
32172;SDS011;18679;45.190;5.722;2023-03-01T11:17:36;32.25;;;13.55;;
32172;SDS011;18679;45.190;5.722;2023-03-01T11:20:38;28.17;;;11.82;;
32172;SDS011;18679;45.190;5.722;2023-03-01T11:23:40;27.30;;;12.30;;
32172;SDS011;18679;45.190;5.722;2023-03-01T11:26:45;31.42;;;12.88;;
32172;SDS011;18679;45.190;5.722;2023-03-01T11:29:53;29.17;;;13.52;;
32172;SDS011;18679;45.190;5.722;2023-03-01T11:36:26;29.48;;;13.45;;
32172;SDS011;18679;45.190;5.722;2023-03-01T11:56:11;37.60;;;15.32;;
32172;SDS011;18679;45.190;5.722;2023-03-01T11:59:08;35.17;;;12.55;;
32172;SDS011;18679;45.190;5.722;2023-03-01T12:09:14;37.30;;;14.88;;
32172;SDS011;18679;45.190;5.722;2023-03-01T12:15:29;32.72;;;12.85;;
32172;SDS011;18679;45.190;5.722;2023-03-01T12:18:34;32.15;;;13.75;;
32172;SDS011;18679;45.190;5.722;2023-03-01T12:25:32;33.92;;;13.25;;
32172;SDS011;18679;45.190;5.722;2023-03-01T12:38:56;31.63;;;13.13;;
32172;SDS011;18679;45.190;5.722;2023-03-01T12:42:07;36.45;;;14.45;;
32172;SDS011;18679;45.190;5.722;2023-03-01T12:51:32;34.47;;;13.65;;
32172;SDS011;18679;45.190;5.722;2023-03-01T12:54:36;32.30;;;13.70;;
32172;SDS011;18679;45.190;5.722;2023-03-01T12:57:38;39.05;;;13.90;;
32172;SDS011;18679;45.190;5.722;2023-03-01T13:00:46;29.75;;;12.57;;
32172;SDS011;18679;45.190;5.722;2023-03-01T13:10:53;30.20;;;12.60;;
32172;SDS011;18679;45.190;5.722;2023-03-01T13:17:30;34.92;;;13.90;;
32172;SDS011;18679;45.190;5.722;2023-03-01T13:23:44;30.95;;;13.90;;
32172;SDS011;18679;45.190;5.722;2023-03-01T13:27:08;28.45;;;13.05;;
32172;SDS011;18679;45.190;5.722;2023-03-01T13:33:47;36.92;;;15.80;;
32172;SDS011;18679;45.190;5.722;2023-03-01T13:36:49;29.08;;;13.13;;
32172;SDS011;18679;45.190;5.722;2023-03-01T13:39:50;33.35;;;13.40;;
32172;SDS011;18679;45.190;5.722;2023-03-01T13:42:52;28.88;;;13.32;;
32172;SDS011;18679;45.190;5.722;2023-03-01T13:45:54;32.83;;;13.35;;
32172;SDS011;18679;45.190;5.722;2023-03-01T13:48:56;25.63;;;11.90;;
32172;SDS011;18679;45.190;5.722;2023-03-01T13:51:57;30.02;;;12.18;;
32172;SDS011;18679;45.190;5.722;2023-03-01T13:54:59;27.48;;;12.77;;
32172;SDS011;18679;45.190;5.722;2023-03-01T13:58:03;23.48;;;11.85;;
32172;SDS011;18679;45.190;5.722;2023-03-01T14:01:22;29.48;;;13.10;;
32172;SDS011;18679;45.190;5.722;2023-03-01T14:04:25;27.77;;;12.35;;
32172;SDS011;18679;45.190;5.722;2023-03-01T14:07:28;25.85;;;12.20;;
32172;SDS011;18679;45.190;5.722;2023-03-01T14:10:44;29.02;;;12.63;;
32172;SDS011;18679;45.190;5.722;2023-03-01T14:20:23;25.10;;;12.05;;
32172;SDS011;18679;45.190;5.722;2023-03-01T14:23:28;27.15;;;12.55;;
32172;SDS011;18679;45.190;5.722;2023-03-01T14:26:29;32.97;;;13.50;;
32172;SDS011;18679;45.190;5.722;2023-03-01T14:29:36;32.40;;;11.88;;
32172;SDS011;18679;45.190;5.722;2023-03-01T14:32:38;27.85;;;11.20;;
32172;SDS011;18679;45.190;5.722;2023-03-01T14:35:39;25.38;;;11.68;;
32172;SDS011;18679;45.190;5.722;2023-03-01T14:38:41;31.38;;;13.70;;
32172;SDS011;18679;45.190;5.722;2023-03-01T14:41:44;30.42;;;12.18;;
32172;SDS011;18679;45.190;5.722;2023-03-01T14:44:46;30.50;;;12.93;;
32172;SDS011;18679;45.190;5.722;2023-03-01T14:47:49;32.03;;;13.32;;
32172;SDS011;18679;45.190;5.722;2023-03-01T14:50:51;30.38;;;11.98;;
32172;SDS011;18679;45.190;5.722;2023-03-01T14:53:52;35.30;;;13.43;;
32172;SDS011;18679;45.190;5.722;2023-03-01T14:56:54;31.05;;;12.57;;
32172;SDS011;18679;45.190;5.722;2023-03-01T15:00:03;20.07;;;8.73;;
32172;SDS011;18679;45.190;5.722;2023-03-01T15:03:52;30.73;;;13.60;;
32172;SDS011;18679;45.190;5.722;2023-03-01T15:06:47;28.17;;;11.57;;
32172;SDS011;18679;45.190;5.722;2023-03-01T15:09:51;31.30;;;13.32;;
32172;SDS011;18679;45.190;5.722;2023-03-01T15:12:52;25.05;;;11.23;;
32172;SDS011;18679;45.190;5.722;2023-03-01T15:15:53;32.63;;;12.68;;
32172;SDS011;18679;45.190;5.722;2023-03-01T15:19:04;32.47;;;13.35;;
32172;SDS011;18679;45.190;5.722;2023-03-01T15:22:12;28.60;;;12.45;;
32172;SDS011;18679;45.190;5.722;2023-03-01T15:25:16;29.45;;;13.10;;
32172;SDS011;18679;45.190;5.722;2023-03-01T15:28:29;31.30;;;12.63;;
32172;SDS011;18679;45.190;5.722;2023-03-01T15:31:33;24.15;;;11.70;;
32172;SDS011;18679;45.190;5.722;2023-03-01T15:34:38;34.45;;;13.05;;
32172;SDS011;18679;45.190;5.722;2023-03-01T15:37:40;28.48;;;12.40;;
32172;SDS011;18679;45.190;5.722;2023-03-01T15:43:52;26.52;;;10.82;;
32172;SDS011;18679;45.190;5.722;2023-03-01T15:46:57;28.55;;;11.60;;
32172;SDS011;18679;45.190;5.722;2023-03-01T15:49:59;33.30;;;13.50;;
32172;SDS011;18679;45.190;5.722;2023-03-01T15:53:04;27.38;;;11.00;;
32172;SDS011;18679;45.190;5.722;2023-03-01T15:56:06;30.55;;;13.93;;
32172;SDS011;18679;45.190;5.722;2023-03-01T15:59:08;24.85;;;12.88;;
32172;SDS011;18679;45.190;5.722;2023-03-01T16:02:13;29.17;;;13.32;;
32172;SDS011;18679;45.190;5.722;2023-03-01T16:05:24;27.02;;;11.98;;
32172;SDS011;18679;45.190;5.722;2023-03-01T16:08:30;30.02;;;13.32;;
32172;SDS011;18679;45.190;5.722;2023-03-01T16:11:31;26.42;;;11.52;;
32172;SDS011;18679;45.190;5.722;2023-03-01T16:14:34;31.05;;;13.85;;
32172;SDS011;18679;45.190;5.722;2023-03-01T16:17:35;25.05;;;12.25;;
32172;SDS011;18679;45.190;5.722;2023-03-01T16:20:35;25.70;;;11.82;;
32172;SDS011;18679;45.190;5.722;2023-03-01T16:23:36;33.10;;;14.25;;
32172;SDS011;18679;45.190;5.722;2023-03-01T16:26:37;33.42;;;12.70;;
32172;SDS011;18679;45.190;5.722;2023-03-01T16:29:38;26.35;;;12.10;;
32172;SDS011;18679;45.190;5.722;2023-03-01T16:32:39;45.83;;;13.48;;
32172;SDS011;18679;45.190;5.722;2023-03-01T16:35:41;24.70;;;12.55;;
32172;SDS011;18679;45.190;5.722;2023-03-01T16:38:44;30.58;;;12.38;;
32172;SDS011;18679;45.190;5.722;2023-03-01T16:41:47;31.63;;;13.25;;
32172;SDS011;18679;45.190;5.722;2023-03-01T16:44:48;29.70;;;13.05;;
32172;SDS011;18679;45.190;5.722;2023-03-01T16:47:54;31.38;;;12.60;;
32172;SDS011;18679;45.190;5.722;2023-03-01T16:50:56;31.08;;;11.82;;
32172;SDS011;18679;45.190;5.722;2023-03-01T16:54:00;30.42;;;13.48;;
32172;SDS011;18679;45.190;5.722;2023-03-01T16:57:02;27.80;;;12.13;;
32172;SDS011;18679;45.190;5.722;2023-03-01T17:00:06;26.65;;;12.95;;
32172;SDS011;18679;45.190;5.722;2023-03-01T17:03:11;34.13;;;13.20;;
32172;SDS011;18679;45.190;5.722;2023-03-01T17:06:15;29.75;;;12.82;;
32172;SDS011;18679;45.190;5.722;2023-03-01T17:09:18;41.70;;;14.45;;
32172;SDS011;18679;45.190;5.722;2023-03-01T17:12:22;30.90;;;14.50;;
32172;SDS011;18679;45.190;5.722;2023-03-01T17:15:23;30.98;;;14.05;;
32172;SDS011;18679;45.190;5.722;2023-03-01T17:18:24;36.35;;;11.85;;
32172;SDS011;18679;45.190;5.722;2023-03-01T17:21:24;30.67;;;13.32;;
32172;SDS011;18679;45.190;5.722;2023-03-01T17:24:25;29.83;;;12.45;;
32172;SDS011;18679;45.190;5.722;2023-03-01T17:27:26;31.52;;;13.00;;
32172;SDS011;18679;45.190;5.722;2023-03-01T17:30:27;31.67;;;13.25;;
32172;SDS011;18679;45.190;5.722;2023-03-01T17:33:28;32.47;;;13.25;;
32172;SDS011;18679;45.190;5.722;2023-03-01T17:36:30;31.35;;;12.65;;
32172;SDS011;18679;45.190;5.722;2023-03-01T17:39:33;28.25;;;12.57;;
32172;SDS011;18679;45.190;5.722;2023-03-01T17:42:35;34.78;;;13.70;;
32172;SDS011;18679;45.190;5.722;2023-03-01T17:45:36;26.70;;;11.85;;
32172;SDS011;18679;45.190;5.722;2023-03-01T17:48:37;33.70;;;12.13;;
32172;SDS011;18679;45.190;5.722;2023-03-01T17:51:39;29.17;;;11.95;;
32172;SDS011;18679;45.190;5.722;2023-03-01T17:54:39;29.08;;;12.75;;
32172;SDS011;18679;45.190;5.722;2023-03-01T17:57:40;25.25;;;11.82;;
32172;SDS011;18679;45.190;5.722;2023-03-01T18:00:41;25.85;;;12.93;;
32172;SDS011;18679;45.190;5.722;2023-03-01T18:03:42;29.13;;;12.63;;
32172;SDS011;18679;45.190;5.722;2023-03-01T18:06:47;37.17;;;14.35;;
32172;SDS011;18679;45.190;5.722;2023-03-01T18:09:48;28.67;;;12.38;;
32172;SDS011;18679;45.190;5.722;2023-03-01T18:12:49;30.33;;;13.57;;
32172;SDS011;18679;45.190;5.722;2023-03-01T18:15:51;29.75;;;13.27;;
32172;SDS011;18679;45.190;5.722;2023-03-01T18:18:52;29.27;;;12.02;;
32172;SDS011;18679;45.190;5.722;2023-03-01T18:21:54;30.13;;;13.20;;
32172;SDS011;18679;45.190;5.722;2023-03-01T18:24:55;36.35;;;13.38;;
32172;SDS011;18679;45.190;5.722;2023-03-01T18:27:56;28.90;;;12.48;;
32172;SDS011;18679;45.190;5.722;2023-03-01T18:33:59;35.45;;;14.32;;
32172;SDS011;18679;45.190;5.722;2023-03-01T18:37:00;29.27;;;12.18;;
32172;SDS011;18679;45.190;5.722;2023-03-01T18:40:01;29.67;;;13.30;;
32172;SDS011;18679;45.190;5.722;2023-03-01T18:43:03;35.28;;;13.65;;
32172;SDS011;18679;45.190;5.722;2023-03-01T18:46:04;32.28;;;13.68;;
32172;SDS011;18679;45.190;5.722;2023-03-01T18:49:06;36.65;;;14.30;;
32172;SDS011;18679;45.190;5.722;2023-03-01T18:52:08;26.58;;;11.73;;
32172;SDS011;18679;45.190;5.722;2023-03-01T18:55:09;41.70;;;12.95;;
32172;SDS011;18679;45.190;5.722;2023-03-01T18:58:10;33.15;;;12.75;;
32172;SDS011;18679;45.190;5.722;2023-03-01T19:01:12;35.80;;;14.93;;
32172;SDS011;18679;45.190;5.722;2023-03-01T19:04:14;33.65;;;12.52;;
32172;SDS011;18679;45.190;5.722;2023-03-01T19:07:15;31.83;;;14.38;;
32172;SDS011;18679;45.190;5.722;2023-03-01T19:10:16;36.00;;;14.65;;
32172;SDS011;18679;45.190;5.722;2023-03-01T19:13:17;28.00;;;12.50;;
32172;SDS011;18679;45.190;5.722;2023-03-01T19:16:22;33.92;;;14.52;;
32172;SDS011;18679;45.190;5.722;2023-03-01T19:19:26;34.58;;;14.15;;
32172;SDS011;18679;45.190;5.722;2023-03-01T19:22:27;30.85;;;13.88;;
32172;SDS011;18679;45.190;5.722;2023-03-01T19:25:28;30.75;;;12.90;;
32172;SDS011;18679;45.190;5.722;2023-03-01T19:28:29;31.38;;;13.63;;
32172;SDS011;18679;45.190;5.722;2023-03-01T19:31:30;39.55;;;13.73;;
32172;SDS011;18679;45.190;5.722;2023-03-01T19:34:31;30.52;;;12.43;;
32172;SDS011;18679;45.190;5.722;2023-03-01T19:37:33;29.13;;;12.68;;
32172;SDS011;18679;45.190;5.722;2023-03-01T19:40:35;33.72;;;13.48;;
32172;SDS011;18679;45.190;5.722;2023-03-01T19:43:36;34.10;;;15.10;;
32172;SDS011;18679;45.190;5.722;2023-03-01T19:46:37;34.83;;;13.70;;
32172;SDS011;18679;45.190;5.722;2023-03-01T19:49:38;33.92;;;13.40;;